Boy Lake, Minnesota
Current Conditions -  °F | °C
As of 8:16 AM on Tuesday 27 Jan 2015 (Local Time) from KXVG Reporting Station
Overcast Overcast  
Wind Chill: 21°   Ceiling: 1000
Heat Index: 27°   Visibility: 10mi
Dew Point: 25°   Wind: 5mph
Humidity: 93%   Direction: 180°S
Pressure: 30.1"   Gusts: NA
Location:  47.0632°N, 94.1534°W
Report Text: KXVG 271416Z AUTO 18004KT 10SM OVC010 M03/M04 A3010 RMK AO2
Loading
Personal Weather Stations






























Interactive Weather Map New forecast layout! Learn more

10-Day Weather Forecast

Advertisements
Track Severe Weather on mobile